Time;durP1;ratioP1;P1;durP2;ratioP2;P2;SDS_P1;SDS_P2;PMS_P1;PMS_P2;Temp;Humidity;BMP_temperature;BMP_pressure;BME280_temperature;BME280_humidity;BME280_pressure;Samples;Min_cycle;Max_cycle;Signal;HPM_P1;HPM_P2
2023/06/29 00:02:19;;;;;;;8.43;6.38;;;23.80;57.60;;;;;;4954181;29;20082;-74
2023/06/29 00:04:45;;;;;;;7.82;6.30;;;23.80;57.60;;;;;;4954486;29;20031;-74
2023/06/29 00:07:10;;;;;;;7.95;6.53;;;23.80;57.70;;;;;;4938114;29;20031;-74
2023/06/29 00:09:36;;;;;;;7.72;5.88;;;23.80;57.70;;;;;;4938416;29;20039;-74
2023/06/29 00:12:02;;;;;;;7.97;6.43;;;23.70;57.70;;;;;;4955272;28;20070;-74
2023/06/29 00:14:28;;;;;;;7.50;6.07;;;23.80;57.80;;;;;;4955595;28;20482;-74
2023/06/29 00:16:53;;;;;;;8.55;6.63;;;23.70;57.80;;;;;;4938559;29;20063;-74
2023/06/29 00:19:20;;;;;;;7.53;6.10;;;23.70;57.80;;;;;;4938030;28;20074;-74
2023/06/29 00:21:48;;;;;;;8.25;7.03;;;23.70;57.80;;;;;;4938541;29;20430;-74
2023/06/29 00:24:14;;;;;;;8.30;6.40;;;23.70;57.80;;;;;;4938350;29;20066;-74
2023/06/29 00:26:41;;;;;;;7.00;5.90;;;23.60;57.80;;;;;;4955595;28;20122;-74
2023/06/29 00:29:06;;;;;;;7.70;6.10;;;23.60;57.90;;;;;;4954987;28;20042;-74
2023/06/29 00:31:34;;;;;;;8.35;6.85;;;23.60;58.00;;;;;;4954030;29;20047;-75
2023/06/29 00:34:00;;;;;;;7.70;6.50;;;23.60;58.00;;;;;;4938131;29;20507;-74
2023/06/29 00:36:26;;;;;;;9.85;6.88;;;23.60;58.00;;;;;;4955362;28;20167;-74
2023/06/29 00:38:53;;;;;;;7.95;6.38;;;23.60;58.00;;;;;;4953376;29;20062;-74
2023/06/29 00:41:19;;;;;;;8.60;6.82;;;23.50;58.00;;;;;;4953972;29;20044;-74
2023/06/29 00:43:45;;;;;;;7.95;6.68;;;23.50;58.10;;;;;;4938356;29;20035;-74
2023/06/29 00:46:12;;;;;;;8.95;6.75;;;23.50;58.10;;;;;;4953660;29;20036;-74
2023/06/29 00:48:39;;;;;;;8.27;6.63;;;23.50;58.80;;;;;;4955280;29;20031;-75
2023/06/29 00:51:05;;;;;;;8.20;6.38;;;23.50;58.10;;;;;;4938700;29;20070;-74
2023/06/29 00:53:31;;;;;;;8.48;6.93;;;23.50;58.20;;;;;;4955412;28;20063;-74
2023/06/29 00:56:00;;;;;;;7.18;5.93;;;23.50;58.20;;;;;;4957760;28;20118;-74
2023/06/29 00:58:26;;;;;;;8.70;6.90;;;23.50;58.30;;;;;;4957511;29;20094;-74
2023/06/29 01:00:52;;;;;;;9.40;7.13;;;23.40;58.20;;;;;;4958294;29;20146;-73
2023/06/29 01:03:18;;;;;;;8.85;7.40;;;23.40;58.30;;;;;;4957458;29;20552;-74
2023/06/29 01:05:45;;;;;;;7.88;6.32;;;23.40;58.90;;;;;;4941507;29;20039;-74
2023/06/29 01:08:22;;;;;;;8.75;6.80;;;23.40;58.30;;;;;;4942299;28;20062;-74
2023/06/29 01:10:48;;;;;;;8.23;6.97;;;23.30;58.30;;;;;;4957820;29;20061;-74
2023/06/29 01:13:18;;;;;;;8.40;6.55;;;23.30;58.30;;;;;;4941730;29;20062;-74
2023/06/29 01:15:46;;;;;;;7.47;6.28;;;23.30;58.30;;;;;;4941375;29;20029;-73
2023/06/29 01:18:13;;;;;;;8.55;6.93;;;23.30;58.30;;;;;;4957686;29;20035;-74
2023/06/29 01:20:41;;;;;;;9.13;6.72;;;23.30;58.30;;;;;;4956903;29;20097;-74
2023/06/29 01:23:14;;;;;;;8.35;6.75;;;23.30;58.40;;;;;;4957404;29;20062;-73
2023/06/29 01:25:41;;;;;;;7.85;6.40;;;23.30;58.40;;;;;;4958828;28;20034;-74
2023/06/29 01:28:09;;;;;;;8.10;6.93;;;23.30;58.30;;;;;;4957161;29;20415;-74
2023/06/29 01:30:45;;;;;;;8.68;7.22;;;23.20;58.30;;;;;;4957287;29;20039;-74
2023/06/29 01:33:11;;;;;;;8.63;6.78;;;23.20;58.30;;;;;;4956967;29;20117;-74
2023/06/29 01:35:37;;;;;;;7.85;6.80;;;23.20;58.30;;;;;;4941751;29;20095;-74
2023/06/29 01:38:19;;;;;;;8.02;6.72;;;23.20;58.40;;;;;;4957039;29;20079;-74
2023/06/29 01:40:48;;;;;;;7.40;6.22;;;23.20;58.40;;;;;;4958642;29;20042;-74
2023/06/29 01:43:15;;;;;;;8.32;6.32;;;23.20;58.40;;;;;;4956880;29;20063;-73
2023/06/29 01:45:42;;;;;;;8.27;6.35;;;23.10;58.40;;;;;;4958016;28;20042;-74
2023/06/29 01:48:09;;;;;;;8.23;6.63;;;23.10;58.40;;;;;;4940824;29;20032;-73
2023/06/29 01:50:35;;;;;;;8.13;6.68;;;23.10;58.50;;;;;;4925122;29;20109;-73
2023/06/29 01:53:03;;;;;;;8.30;6.80;;;23.10;58.40;;;;;;4941084;29;20499;-73
2023/06/29 01:55:29;;;;;;;7.97;6.75;;;23.10;58.40;;;;;;4940610;29;20035;-74
2023/06/29 01:57:55;;;;;;;8.13;6.55;;;23.10;58.50;;;;;;4940400;29;20023;-74
2023/06/29 02:00:21;;;;;;;8.35;6.85;;;23.10;58.40;;;;;;4940253;29;20050;-74
2023/06/29 02:02:46;;;;;;;7.95;6.38;;;23.10;58.40;;;;;;4941179;29;20039;-74
2023/06/29 02:05:12;;;;;;;8.50;6.72;;;23.10;58.50;;;;;;4955730;28;20447;-76
2023/06/29 02:07:38;;;;;;;8.45;6.63;;;23.00;58.50;;;;;;4956448;28;20031;-74
2023/06/29 02:10:05;;;;;;;8.23;6.63;;;23.00;58.50;;;;;;4940277;29;20131;-73
2023/06/29 02:12:31;;;;;;;8.80;6.82;;;23.00;58.50;;;;;;4957783;28;20476;-74
2023/06/29 02:14:56;;;;;;;8.93;6.97;;;23.00;58.60;;;;;;4956519;29;20089;-74
2023/06/29 02:17:22;;;;;;;8.30;6.97;;;23.00;58.60;;;;;;4940897;28;20361;-74
2023/06/29 02:19:48;;;;;;;9.30;7.40;;;23.00;58.60;;;;;;4940172;29;20035;-74
2023/06/29 02:22:14;;;;;;;8.07;6.95;;;23.00;58.70;;;;;;4956564;29;20048;-74
2023/06/29 02:24:40;;;;;;;8.48;6.85;;;23.00;58.70;;;;;;4956547;29;20042;-74
2023/06/29 02:27:06;;;;;;;8.32;7.10;;;23.00;58.70;;;;;;4956169;29;20392;-74
2023/06/29 02:29:33;;;;;;;8.98;7.18;;;23.00;58.70;;;;;;4940801;29;20042;-74
2023/06/29 02:31:58;;;;;;;9.23;7.28;;;22.90;58.70;;;;;;4939825;29;20547;-74
2023/06/29 02:34:24;;;;;;;8.30;6.72;;;22.90;58.70;;;;;;4939928;28;20126;-74
2023/06/29 02:36:50;;;;;;;8.38;7.05;;;22.90;58.70;;;;;;4939952;29;20122;-74
2023/06/29 02:39:16;;;;;;;8.35;7.18;;;22.90;58.80;;;;;;4955497;29;20055;-74
2023/06/29 02:41:42;;;;;;;7.78;6.30;;;22.90;58.80;;;;;;4940033;29;20043;-76
2023/06/29 02:44:07;;;;;;;7.70;6.57;;;22.90;58.80;;;;;;4939814;29;20027;-74
2023/06/29 02:46:34;;;;;;;8.05;6.93;;;22.90;58.80;;;;;;4955453;29;20032;-74
2023/06/29 02:49:00;;;;;;;8.20;6.88;;;22.90;58.80;;;;;;4939749;29;20126;-74
2023/06/29 02:51:26;;;;;;;7.93;6.45;;;22.90;58.80;;;;;;4955694;29;20047;-74
2023/06/29 02:53:57;;;;;;;8.45;6.57;;;22.90;58.90;;;;;;4941223;28;20039;-74
2023/06/29 02:56:23;;;;;;;8.75;6.82;;;22.90;58.80;;;;;;4955839;29;20126;-74
2023/06/29 02:58:48;;;;;;;8.02;6.78;;;22.90;58.90;;;;;;4956480;29;20549;-74
2023/06/29 03:01:19;;;;;;;8.10;6.57;;;22.80;58.90;;;;;;4955722;29;20047;-74
2023/06/29 03:03:45;;;;;;;8.35;7.25;;;22.90;59.00;;;;;;4939270;29;20034;-75
2023/06/29 03:06:11;;;;;;;7.75;6.30;;;22.90;59.00;;;;;;4955304;29;20067;-73
2023/06/29 03:08:37;;;;;;;9.27;7.43;;;22.80;59.00;;;;;;4955396;29;20031;-74
2023/06/29 03:11:02;;;;;;;8.18;6.85;;;22.80;59.00;;;;;;4939098;29;20039;-74
2023/06/29 03:13:28;;;;;;;7.88;6.65;;;22.80;59.10;;;;;;4923534;29;20031;-74
2023/06/29 03:15:59;;;;;;;8.75;7.15;;;22.80;59.10;;;;;;4955767;28;20476;-74
2023/06/29 03:18:25;;;;;;;8.32;6.80;;;22.80;59.10;;;;;;4955039;29;20035;-74
2023/06/29 03:20:50;;;;;;;8.93;6.85;;;22.80;59.10;;;;;;4939031;28;20046;-74
2023/06/29 03:23:16;;;;;;;8.20;6.95;;;22.80;59.10;;;;;;4939100;28;20032;-74
2023/06/29 03:25:42;;;;;;;8.85;7.00;;;22.80;59.10;;;;;;4955565;29;20362;-74
2023/06/29 03:28:08;;;;;;;9.15;7.07;;;22.80;59.10;;;;;;4956905;28;20029;-74
2023/06/29 03:30:33;;;;;;;7.65;6.20;;;22.80;59.20;;;;;;4955687;29;20035;-74
2023/06/29 03:33:01;;;;;;;7.60;6.80;;;22.70;59.10;;;;;;4954842;29;20134;-74
2023/06/29 03:35:26;;;;;;;8.55;7.55;;;22.70;59.20;;;;;;4955488;29;20067;-74
2023/06/29 03:37:52;;;;;;;8.70;7.20;;;22.70;59.20;;;;;;4954466;29;20055;-74
2023/06/29 03:40:18;;;;;;;8.02;6.57;;;22.80;59.20;;;;;;4954512;29;20480;-74
2023/06/29 03:42:44;;;;;;;8.60;7.10;;;22.70;59.10;;;;;;4955719;28;20039;-74
2023/06/29 03:45:10;;;;;;;8.18;6.70;;;22.70;59.20;;;;;;4954856;29;20074;-75
2023/06/29 03:47:36;;;;;;;8.18;6.85;;;22.70;59.30;;;;;;4938620;29;20035;-74
2023/06/29 03:50:02;;;;;;;8.35;6.93;;;22.70;59.20;;;;;;4938893;29;20537;-75
2023/06/29 03:52:27;;;;;;;9.00;7.40;;;22.70;59.90;;;;;;4955479;29;20027;-74
2023/06/29 03:54:53;;;;;;;8.50;7.28;;;22.70;59.30;;;;;;4954564;29;20386;-74
2023/06/29 03:57:19;;;;;;;8.15;7.03;;;22.70;59.30;;;;;;4938243;28;20031;-74
2023/06/29 03:59:44;;;;;;;8.88;7.32;;;22.70;59.40;;;;;;4938670;29;20114;-74
2023/06/29 04:02:10;;;;;;;8.82;7.38;;;22.70;59.50;;;;;;4954011;28;20525;-74
2023/06/29 04:04:36;;;;;;;8.98;7.53;;;22.70;59.30;;;;;;4938208;29;20035;-74
2023/06/29 04:07:02;;;;;;;8.48;7.05;;;22.70;59.30;;;;;;4938037;29;20039;-74
2023/06/29 04:09:27;;;;;;;7.82;6.75;;;22.70;59.40;;;;;;4955598;28;20103;-75
2023/06/29 04:11:53;;;;;;;8.32;7.10;;;22.70;59.40;;;;;;4938288;29;20185;-75
2023/06/29 04:14:19;;;;;;;9.73;7.75;;;22.70;59.40;;;;;;4954267;29;20028;-74
2023/06/29 04:16:45;;;;;;;9.80;7.18;;;22.70;59.50;;;;;;4938579;28;20111;-75
2023/06/29 04:19:10;;;;;;;8.38;7.00;;;22.70;59.40;;;;;;4955456;28;20538;-74
2023/06/29 04:21:36;;;;;;;8.90;7.30;;;22.70;59.40;;;;;;4954032;29;20073;-74
2023/06/29 04:24:02;;;;;;;8.70;6.93;;;22.70;59.50;;;;;;4955109;28;20502;-75
2023/06/29 04:26:28;;;;;;;8.35;6.88;;;22.70;59.50;;;;;;4938584;29;20040;-74
2023/06/29 04:29:00;;;;;;;8.52;6.85;;;22.70;59.50;;;;;;4937059;28;20039;-73
2023/06/29 04:31:28;;;;;;;8.68;7.15;;;22.60;59.50;;;;;;4955695;28;20091;-74
2023/06/29 04:33:54;;;;;;;9.18;7.57;;;22.70;59.50;;;;;;4954025;28;20076;-74
2023/06/29 04:36:21;;;;;;;9.25;7.07;;;22.60;59.40;;;;;;4938381;29;20058;-74
2023/06/29 04:38:47;;;;;;;9.25;7.40;;;22.60;59.30;;;;;;4938042;29;20146;-74
2023/06/29 04:41:13;;;;;;;8.85;7.25;;;22.60;59.40;;;;;;4953951;29;20043;-74
2023/06/29 04:43:39;;;;;;;9.00;6.90;;;22.60;59.40;;;;;;4954163;29;20058;-74
2023/06/29 04:46:05;;;;;;;9.07;7.82;;;22.60;59.40;;;;;;4938760;29;20353;-74
2023/06/29 04:48:36;;;;;;;8.20;7.28;;;22.60;59.50;;;;;;4954695;29;20046;-74
2023/06/29 04:51:05;;;;;;;8.63;7.20;;;22.60;60.10;;;;;;4954785;28;20035;-75
2023/06/29 04:53:34;;;;;;;8.18;6.88;;;22.60;59.40;;;;;;4953971;29;20023;-74
2023/06/29 04:56:01;;;;;;;7.95;6.43;;;22.60;59.40;;;;;;4954203;29;20039;-74
2023/06/29 04:58:27;;;;;;;9.15;7.07;;;22.60;59.30;;;;;;4954035;29;20166;-74
2023/06/29 05:00:56;;;;;;;8.05;7.20;;;22.60;59.30;;;;;;4937779;29;20126;-74
2023/06/29 05:03:23;;;;;;;9.00;7.45;;;22.60;59.30;;;;;;4953759;29;20047;-74
2023/06/29 05:05:49;;;;;;;7.68;6.43;;;22.60;59.20;;;;;;4954727;28;20026;-74
2023/06/29 05:08:15;;;;;;;7.03;6.15;;;22.60;59.20;;;;;;4954013;29;20036;-74
2023/06/29 05:10:41;;;;;;;8.10;6.97;;;22.60;59.20;;;;;;4953901;29;20357;-74
2023/06/29 05:13:06;;;;;;;8.15;6.45;;;22.60;59.10;;;;;;4938001;29;20516;-74
2023/06/29 05:15:32;;;;;;;7.82;6.20;;;22.60;59.10;;;;;;4954784;28;20126;-74
2023/06/29 05:17:58;;;;;;;7.63;6.57;;;22.60;59.10;;;;;;4938544;28;20388;-74
2023/06/29 05:20:23;;;;;;;7.93;6.78;;;22.60;59.10;;;;;;4937701;28;20424;-75
2023/06/29 05:22:49;;;;;;;7.60;6.20;;;22.60;59.10;;;;;;4953355;29;20071;-73
2023/06/29 05:25:15;;;;;;;7.65;6.03;;;22.60;59.00;;;;;;4954417;28;20035;-72
2023/06/29 05:27:41;;;;;;;7.88;6.63;;;22.70;59.10;;;;;;4954934;28;20046;-72
2023/06/29 05:30:11;;;;;;;7.35;6.28;;;22.60;59.00;;;;;;4954053;29;20051;-74
2023/06/29 05:32:37;;;;;;;7.80;6.50;;;22.60;59.00;;;;;;4953376;29;20372;-72
2023/06/29 05:35:04;;;;;;;7.30;6.05;;;22.60;59.00;;;;;;4937565;29;20037;-73
2023/06/29 05:37:30;;;;;;;7.93;5.97;;;22.60;59.00;;;;;;4953290;29;20042;-72
2023/06/29 05:39:56;;;;;;;6.82;5.82;;;22.70;59.00;;;;;;4940206;29;20035;-72
2023/06/29 05:42:23;;;;;;;7.75;6.25;;;22.70;59.00;;;;;;4957830;28;20051;-72
2023/06/29 05:44:49;;;;;;;7.50;5.95;;;22.60;59.00;;;;;;4957621;29;20027;-73
2023/06/29 05:47:15;;;;;;;7.40;5.88;;;22.70;59.00;;;;;;4958328;28;20118;-72
2023/06/29 05:49:40;;;;;;;7.35;6.07;;;22.70;59.00;;;;;;4956539;29;20425;-72
2023/06/29 05:52:06;;;;;;;7.95;6.70;;;22.70;58.90;;;;;;4956534;29;20395;-72
2023/06/29 05:54:32;;;;;;;7.72;6.45;;;22.70;59.00;;;;;;4941106;29;20114;-74
2023/06/29 05:56:58;;;;;;;8.15;6.47;;;22.60;59.00;;;;;;4956424;29;20508;-77
2023/06/29 05:59:24;;;;;;;7.45;5.85;;;22.70;59.10;;;;;;4956659;28;20502;-74
2023/06/29 06:01:49;;;;;;;7.25;6.03;;;22.70;59.10;;;;;;4941263;29;20400;-73
2023/06/29 06:04:15;;;;;;;7.28;5.75;;;22.60;59.10;;;;;;4957528;28;20042;-74
2023/06/29 06:06:41;;;;;;;7.40;5.72;;;22.70;59.10;;;;;;4925517;29;20039;-74
2023/06/29 06:09:07;;;;;;;8.07;6.35;;;22.70;59.10;;;;;;4956225;29;20152;-73
2023/06/29 06:11:32;;;;;;;7.30;5.70;;;22.70;59.10;;;;;;4957900;28;20043;-73
2023/06/29 06:13:58;;;;;;;6.22;5.13;;;22.70;59.10;;;;;;4940727;29;20384;-74
2023/06/29 06:16:24;;;;;;;7.03;5.57;;;22.70;59.10;;;;;;4940489;28;20369;-74
2023/06/29 06:18:50;;;;;;;6.93;5.88;;;22.70;59.10;;;;;;4940434;29;20027;-73
2023/06/29 06:21:16;;;;;;;6.95;5.63;;;22.70;59.10;;;;;;4956805;28;20051;-73
2023/06/29 06:23:42;;;;;;;7.60;5.65;;;22.70;59.00;;;;;;4956492;29;20031;-73
2023/06/29 06:26:08;;;;;;;7.45;5.93;;;22.70;59.10;;;;;;4955786;29;20023;-73
2023/06/29 06:28:34;;;;;;;7.05;5.85;;;22.70;59.10;;;;;;4957235;28;20039;-73
2023/06/29 06:30:59;;;;;;;7.07;5.75;;;22.80;59.10;;;;;;4956616;28;20110;-73
2023/06/29 06:33:30;;;;;;;7.63;6.38;;;22.80;59.10;;;;;;4955382;29;20099;-73
2023/06/29 06:35:56;;;;;;;7.03;5.88;;;22.80;59.10;;;;;;4956272;28;20102;-72
2023/06/29 06:38:22;;;;;;;7.80;6.40;;;22.80;59.10;;;;;;4940084;29;20436;-74
2023/06/29 06:40:48;;;;;;;7.00;5.60;;;22.80;59.10;;;;;;4955671;29;20050;-74
2023/06/29 06:43:15;;;;;;;7.20;5.88;;;22.80;59.10;;;;;;4957579;29;20035;-73
2023/06/29 06:45:40;;;;;;;7.47;5.88;;;22.90;59.10;;;;;;4955794;29;20035;-73
2023/06/29 06:48:06;;;;;;;8.25;6.15;;;22.90;59.00;;;;;;4939988;29;20130;-73
2023/06/29 06:50:32;;;;;;;7.50;5.95;;;22.90;59.00;;;;;;4954890;28;20480;-74
2023/06/29 06:52:58;;;;;;;6.90;5.40;;;22.90;59.00;;;;;;4956438;29;20038;-73
2023/06/29 06:55:23;;;;;;;7.85;6.20;;;23.00;59.00;;;;;;4939757;28;20042;-74
2023/06/29 06:57:49;;;;;;;7.97;6.53;;;22.90;59.00;;;;;;4955786;28;20475;-73
2023/06/29 07:00:16;;;;;;;8.90;6.20;;;23.00;59.00;;;;;;4939803;29;20114;-74
2023/06/29 07:02:42;;;;;;;7.22;6.05;;;23.00;59.00;;;;;;4939711;29;20055;-73
2023/06/29 07:05:08;;;;;;;6.75;5.60;;;23.00;59.00;;;;;;4923713;29;20042;-73
2023/06/29 07:07:34;;;;;;;7.03;5.70;;;23.00;59.00;;;;;;4956655;28;20058;-73
2023/06/29 07:10:00;;;;;;;7.78;6.20;;;23.10;59.00;;;;;;4957125;28;20507;-74
2023/06/29 07:12:26;;;;;;;7.88;6.47;;;23.00;58.90;;;;;;4955458;29;20090;-73
2023/06/29 07:14:52;;;;;;;7.57;5.90;;;23.10;58.90;;;;;;4939043;29;20038;-76
2023/06/29 07:17:17;;;;;;;7.18;5.82;;;23.10;58.90;;;;;;4939286;29;20058;-74
2023/06/29 07:19:43;;;;;;;7.15;5.55;;;23.10;58.90;;;;;;4940017;29;20450;-73
2023/06/29 07:22:09;;;;;;;7.65;5.72;;;23.10;58.80;;;;;;4955347;29;20062;-73
2023/06/29 07:24:35;;;;;;;8.13;6.15;;;23.20;58.90;;;;;;4939353;29;20035;-73
2023/06/29 07:27:00;;;;;;;7.13;5.68;;;23.20;58.80;;;;;;4955962;29;20118;-73
2023/06/29 07:29:27;;;;;;;8.02;6.05;;;23.20;58.80;;;;;;4955370;29;20092;-73
2023/06/29 07:31:52;;;;;;;7.45;5.65;;;23.20;58.80;;;;;;4939245;29;20038;-74
2023/06/29 07:34:23;;;;;;;7.47;6.18;;;23.30;58.80;;;;;;4955010;29;20039;-73
2023/06/29 07:36:48;;;;;;;8.15;6.20;;;23.30;58.80;;;;;;4940383;29;20130;-73
2023/06/29 07:39:14;;;;;;;7.30;5.68;;;23.30;58.80;;;;;;4954853;29;20450;-73
2023/06/29 07:41:40;;;;;;;7.35;5.68;;;23.40;58.70;;;;;;4956834;29;20152;-72
2023/06/29 07:44:06;;;;;;;8.25;6.25;;;23.40;58.70;;;;;;4955660;28;20039;-74
2023/06/29 07:46:31;;;;;;;7.65;5.80;;;23.40;58.70;;;;;;4939531;28;20023;-73
2023/06/29 07:48:59;;;;;;;7.13;5.78;;;23.40;58.60;;;;;;4955738;28;20066;-74
2023/06/29 07:51:25;;;;;;;7.57;5.90;;;23.50;58.70;;;;;;4956085;28;20043;-73
2023/06/29 07:53:52;;;;;;;7.60;5.90;;;23.50;58.60;;;;;;4954782;29;20107;-73
2023/06/29 07:56:18;;;;;;;7.68;5.82;;;23.50;58.60;;;;;;4956029;28;20031;-73
2023/06/29 07:58:45;;;;;;;6.45;5.07;;;23.60;58.60;;;;;;4955718;28;20032;-73
2023/06/29 08:01:10;;;;;;;7.60;5.72;;;23.60;58.50;;;;;;4938356;29;20039;-74
2023/06/29 08:03:36;;;;;;;7.80;5.85;;;23.60;58.50;;;;;;4954275;28;20094;-73
2023/06/29 08:06:02;;;;;;;6.72;5.28;;;23.60;58.50;;;;;;4939017;29;20039;-73
2023/06/29 08:08:31;;;;;;;7.30;5.90;;;23.60;58.40;;;;;;4938614;29;20028;-73
2023/06/29 08:10:59;;;;;;;7.32;5.47;;;23.70;58.40;;;;;;4954271;28;20472;-73
2023/06/29 08:13:25;;;;;;;6.57;5.35;;;23.70;58.40;;;;;;4954463;29;20050;-74
2023/06/29 08:15:50;;;;;;;7.03;5.65;;;23.80;58.40;;;;;;4954292;29;20028;-73
2023/06/29 08:18:16;;;;;;;7.22;5.88;;;23.80;58.40;;;;;;4955574;28;20165;-73
2023/06/29 08:20:42;;;;;;;7.03;5.63;;;23.80;58.40;;;;;;4954059;29;20039;-72
2023/06/29 08:23:08;;;;;;;7.05;5.45;;;23.80;58.40;;;;;;4953893;29;20122;-72
2023/06/29 08:25:33;;;;;;;6.93;5.78;;;23.90;58.40;;;;;;4953895;29;20163;-72
2023/06/29 08:27:59;;;;;;;7.63;6.00;;;23.90;58.30;;;;;;4954017;29;20038;-74
2023/06/29 08:30:25;;;;;;;7.25;5.78;;;23.90;58.30;;;;;;4953784;29;20039;-75
2023/06/29 08:32:51;;;;;;;6.85;5.47;;;24.00;58.40;;;;;;4954024;29;20027;-75
2023/06/29 08:35:16;;;;;;;7.47;5.75;;;24.00;58.40;;;;;;4954581;29;20039;-74
2023/06/29 08:37:42;;;;;;;6.47;5.43;;;24.00;58.30;;;;;;4937610;29;20106;-74
2023/06/29 08:40:10;;;;;;;7.63;5.32;;;24.10;58.40;;;;;;4954076;29;20481;-73
2023/06/29 08:42:39;;;;;;;6.95;5.40;;;24.10;58.40;;;;;;4938388;29;20047;-73
2023/06/29 08:45:06;;;;;;;7.30;5.82;;;24.20;58.40;;;;;;4955501;28;20038;-74
2023/06/29 08:47:33;;;;;;;6.68;5.28;;;24.20;58.40;;;;;;4953832;29;20031;-74
2023/06/29 08:50:03;;;;;;;7.55;5.82;;;24.20;58.40;;;;;;4955223;28;20082;-73
2023/06/29 08:52:33;;;;;;;6.85;5.47;;;24.30;58.40;;;;;;4955432;29;20039;-74
2023/06/29 08:54:58;;;;;;;7.25;5.88;;;24.40;58.40;;;;;;4937943;29;20035;-76
2023/06/29 08:57:24;;;;;;;7.47;5.93;;;24.40;58.40;;;;;;4953677;29;20046;-74
2023/06/29 08:59:51;;;;;;;8.00;6.05;;;24.50;58.30;;;;;;4953679;29;20102;-74
2023/06/29 09:02:17;;;;;;;9.05;6.43;;;24.50;58.20;;;;;;4937666;29;20046;-74
2023/06/29 09:04:46;;;;;;;7.55;5.93;;;24.60;58.20;;;;;;4922527;29;20070;-74
2023/06/29 09:07:14;;;;;;;7.70;6.18;;;24.70;58.10;;;;;;4938385;29;20073;-73
2023/06/29 09:09:40;;;;;;;7.85;6.05;;;24.70;58.00;;;;;;4937529;28;20031;-73
2023/06/29 09:12:06;;;;;;;7.80;5.90;;;24.80;57.90;;;;;;4955076;28;20041;-73
2023/06/29 09:14:35;;;;;;;8.20;6.32;;;24.80;57.90;;;;;;4939255;28;20123;-74
2023/06/29 09:17:01;;;;;;;6.68;5.57;;;24.80;57.80;;;;;;4942132;29;20035;-73
2023/06/29 09:19:29;;;;;;;7.28;6.00;;;24.90;57.80;;;;;;4942211;28;20031;-74
2023/06/29 09:21:55;;;;;;;7.70;6.10;;;25.00;57.80;;;;;;4959041;28;20113;-74
2023/06/29 09:24:21;;;;;;;7.80;6.30;;;25.00;57.80;;;;;;4957447;29;20445;-74
2023/06/29 09:26:54;;;;;;;7.72;6.28;;;25.10;57.70;;;;;;4942120;29;20039;-74
2023/06/29 09:29:20;;;;;;;7.88;6.22;;;25.10;57.70;;;;;;4957848;29;20035;-76
2023/06/29 09:31:59;;;;;;;7.70;5.65;;;25.20;57.70;;;;;;4941267;29;20105;-75
2023/06/29 09:34:26;;;;;;;7.38;5.80;;;25.30;57.70;;;;;;4956814;29;20032;-75
2023/06/29 09:36:52;;;;;;;7.72;6.28;;;25.40;57.70;;;;;;4958649;28;20059;-75
2023/06/29 09:39:19;;;;;;;8.05;6.35;;;25.40;57.70;;;;;;4940762;29;20051;-76
2023/06/29 09:41:50;;;;;;;7.72;5.90;;;25.40;57.60;;;;;;4941724;29;20089;-74
2023/06/29 09:44:20;;;;;;;7.55;6.55;;;25.50;57.60;;;;;;4941812;28;20098;-75
2023/06/29 09:46:47;;;;;;;8.45;6.57;;;25.60;57.60;;;;;;4957556;29;20037;-75
2023/06/29 09:49:14;;;;;;;8.50;6.35;;;25.70;57.60;;;;;;4957828;28;20031;-74
2023/06/29 09:51:40;;;;;;;7.88;6.50;;;25.70;57.50;;;;;;4956826;29;20039;-74
2023/06/29 09:54:14;;;;;;;8.55;6.90;;;25.80;57.50;;;;;;4941070;29;20551;-74
2023/06/29 09:56:40;;;;;;;7.78;6.38;;;25.90;57.50;;;;;;4956725;29;20023;-74
2023/06/29 09:59:11;;;;;;;8.00;6.63;;;25.90;57.40;;;;;;4956942;29;20063;-74
2023/06/29 10:01:40;;;;;;;8.00;6.50;;;26.00;57.40;;;;;;4941392;29;20479;-75
2023/06/29 10:04:07;;;;;;;7.60;6.30;;;26.10;57.40;;;;;;4940495;29;20046;-74
2023/06/29 10:06:47;;;;;;;8.45;6.72;;;26.10;57.30;;;;;;4956402;29;20547;-74
2023/06/29 10:09:19;;;;;;;8.00;6.13;;;26.20;57.30;;;;;;4958075;28;20049;-74
2023/06/29 10:11:51;;;;;;;7.45;6.20;;;26.30;57.20;;;;;;4957947;28;20035;-74
2023/06/29 10:14:18;;;;;;;8.75;6.90;;;26.30;57.10;;;;;;4957251;28;20535;-74
2023/06/29 10:16:52;;;;;;;8.52;6.82;;;26.40;57.10;;;;;;4956346;29;20114;-75
2023/06/29 10:19:23;;;;;;;8.18;6.47;;;26.40;57.10;;;;;;4956784;29;20027;-74
2023/06/29 10:22:03;;;;;;;8.02;6.55;;;26.50;57.10;;;;;;4956130;29;20035;-74
2023/06/29 10:24:56;;;;;;;8.55;7.20;;;26.50;57.00;;;;;;4956386;29;20031;-74
2023/06/29 10:27:26;;;;;;;8.18;6.55;;;26.60;57.10;;;;;;4952437;28;20051;-75
2023/06/29 10:29:52;;;;;;;8.02;6.82;;;26.60;57.00;;;;;;4955989;29;20118;-74
2023/06/29 10:32:37;;;;;;;8.15;6.63;;;26.60;56.90;;;;;;4940085;28;20039;-75
2023/06/29 10:35:14;;;;;;;8.98;6.75;;;26.60;57.00;;;;;;4957063;28;20035;-74
2023/06/29 10:37:44;;;;;;;8.25;6.57;;;26.70;57.00;;;;;;4957568;28;20075;-74
2023/06/29 10:40:10;;;;;;;7.63;6.78;;;26.70;56.90;;;;;;4939776;29;20051;-75
2023/06/29 10:42:39;;;;;;;8.60;6.72;;;26.80;56.90;;;;;;4957205;28;20130;-74
2023/06/29 10:45:20;;;;;;;9.10;7.07;;;26.80;57.00;;;;;;4956206;29;20461;-74
2023/06/29 10:47:58;;;;;;;7.70;6.53;;;26.80;56.90;;;;;;4955681;29;20031;-74
2023/06/29 10:50:28;;;;;;;8.32;6.50;;;26.90;57.00;;;;;;4957886;28;20114;-75
2023/06/29 10:53:02;;;;;;;8.20;6.43;;;26.90;56.90;;;;;;4955511;29;20131;-75
2023/06/29 10:55:37;;;;;;;8.80;6.95;;;27.00;56.90;;;;;;4957226;28;20027;-76
2023/06/29 10:58:17;;;;;;;8.05;6.75;;;27.00;56.80;;;;;;4955441;28;20043;-74
2023/06/29 11:00:43;;;;;;;7.28;5.93;;;27.00;56.80;;;;;;4956550;28;20039;-74
2023/06/29 11:03:10;;;;;;;8.25;6.25;;;27.10;56.80;;;;;;4955337;29;20047;-76
2023/06/29 11:05:36;;;;;;;8.48;6.88;;;27.10;56.70;;;;;;4939884;29;20042;-75
2023/06/29 11:08:02;;;;;;;9.35;6.85;;;27.20;56.70;;;;;;4955231;29;20106;-75
2023/06/29 11:10:28;;;;;;;8.25;6.65;;;27.20;56.70;;;;;;4955407;29;20159;-75
2023/06/29 11:12:55;;;;;;;9.00;7.32;;;27.20;56.60;;;;;;4955706;29;20035;-74
2023/06/29 11:15:22;;;;;;;9.45;6.82;;;27.30;56.60;;;;;;4939311;29;20031;-75
2023/06/29 11:17:52;;;;;;;8.50;7.22;;;27.30;56.60;;;;;;4955631;29;20118;-75
2023/06/29 11:20:19;;;;;;;8.05;6.05;;;27.30;56.60;;;;;;4954914;29;20043;-75
2023/06/29 11:22:45;;;;;;;7.97;6.63;;;27.40;56.50;;;;;;4939907;29;20027;-74
2023/06/29 11:25:16;;;;;;;8.60;6.82;;;27.40;56.50;;;;;;4956118;28;20038;-75
2023/06/29 11:27:42;;;;;;;7.85;6.00;;;27.50;56.50;;;;;;4955341;28;20042;-75
2023/06/29 11:30:10;;;;;;;8.20;6.68;;;27.50;56.40;;;;;;4954793;29;20123;-75
2023/06/29 11:32:47;;;;;;;8.75;7.28;;;27.60;56.50;;;;;;4956423;28;20039;-76
2023/06/29 11:35:13;;;;;;;8.20;6.60;;;27.50;56.40;;;;;;4955631;28;20102;-76
2023/06/29 11:37:40;;;;;;;8.18;6.38;;;27.60;56.30;;;;;;4954335;28;20495;-76
2023/06/29 11:40:23;;;;;;;8.68;6.93;;;27.60;56.30;;;;;;4956543;29;20055;-76
2023/06/29 11:42:50;;;;;;;8.40;6.82;;;27.70;56.40;;;;;;4939117;28;20054;-77
2023/06/29 11:45:17;;;;;;;8.13;6.72;;;27.70;56.30;;;;;;4954980;29;20050;-76
2023/06/29 11:47:46;;;;;;;8.45;7.07;;;27.70;56.20;;;;;;4956172;28;20047;-76
2023/06/29 11:50:12;;;;;;;8.48;6.72;;;27.70;56.20;;;;;;4954679;28;20175;-76
2023/06/29 11:52:44;;;;;;;8.70;6.32;;;27.70;56.10;;;;;;4938508;29;20122;-76
2023/06/29 11:55:12;;;;;;;8.40;6.55;;;27.80;56.10;;;;;;4955582;28;20451;-73
2023/06/29 11:57:40;;;;;;;9.10;7.43;;;27.80;56.10;;;;;;4954544;29;20031;-76
2023/06/29 12:00:11;;;;;;;8.02;6.57;;;27.80;56.00;;;;;;4955481;28;20118;-75
2023/06/29 12:02:39;;;;;;;8.73;7.07;;;27.90;56.10;;;;;;4955634;28;20113;-74
2023/06/29 12:05:05;;;;;;;8.90;6.80;;;27.90;56.00;;;;;;4955682;28;20032;-75
2023/06/29 12:07:45;;;;;;;9.55;7.60;;;27.90;56.00;;;;;;4955985;28;20039;-77
2023/06/29 12:10:16;;;;;;;8.68;7.20;;;27.90;56.00;;;;;;4954243;29;20039;-75
2023/06/29 12:12:43;;;;;;;8.27;6.70;;;28.00;55.90;;;;;;4954387;28;20038;-74
2023/06/29 12:15:17;;;;;;;9.35;7.55;;;28.00;55.90;;;;;;4954360;29;20028;-73
2023/06/29 12:17:44;;;;;;;8.25;6.68;;;28.10;56.00;;;;;;4955702;28;20067;-76
2023/06/29 12:20:15;;;;;;;8.20;7.05;;;28.10;55.90;;;;;;4956239;28;20046;-76
2023/06/29 12:22:42;;;;;;;8.55;7.25;;;28.10;55.80;;;;;;4954250;28;20126;-73
2023/06/29 12:25:10;;;;;;;8.55;6.57;;;28.10;55.70;;;;;;4953981;29;20027;-76
2023/06/29 12:27:36;;;;;;;9.48;7.25;;;28.20;55.80;;;;;;4955110;28;20523;-76
2023/06/29 12:30:03;;;;;;;8.50;7.22;;;28.20;55.80;;;;;;4938314;28;20515;-76
2023/06/29 12:32:29;;;;;;;9.13;7.55;;;28.20;55.70;;;;;;4955363;29;20035;-76
2023/06/29 12:34:55;;;;;;;8.75;7.20;;;28.30;55.80;;;;;;4938118;28;20036;-76
2023/06/29 12:37:21;;;;;;;9.07;7.22;;;28.30;55.70;;;;;;4953868;29;20546;-76
2023/06/29 12:39:48;;;;;;;9.05;7.47;;;28.30;55.70;;;;;;4953962;29;20547;-74
2023/06/29 12:42:14;;;;;;;9.10;7.53;;;28.40;55.70;;;;;;4938185;28;20048;-76
2023/06/29 12:44:40;;;;;;;9.65;7.55;;;28.40;55.70;;;;;;4955026;28;20039;-76
2023/06/29 12:47:06;;;;;;;9.88;7.95;;;28.40;55.60;;;;;;4954741;29;20523;-76
2023/06/29 12:49:32;;;;;;;9.65;7.70;;;28.40;55.60;;;;;;4939749;29;20447;-74